createdAt,value
2023-08-28T00:02:11.316Z,996.78
2023-08-28T00:07:55.930Z,996.67
2023-08-28T00:13:40.282Z,996.62
2023-08-28T00:19:24.567Z,996.53
2023-08-28T00:25:09.359Z,996.55
2023-08-28T00:30:53.705Z,996.52
2023-08-28T00:36:43.925Z,996.46
2023-08-28T00:42:28.234Z,996.38
2023-08-28T00:48:12.876Z,996.28
2023-08-28T00:53:57.605Z,996.25
2023-08-28T00:59:43.708Z,996.27
2023-08-28T01:05:33.030Z,996.35
2023-08-28T01:11:20.802Z,996.35
2023-08-28T01:17:07.599Z,996.34
2023-08-28T01:22:55.939Z,996.29
2023-08-28T01:28:40.392Z,996.24
2023-08-28T01:34:24.800Z,996.23
2023-08-28T01:40:11.085Z,996.15
2023-08-28T01:45:55.556Z,995.99
2023-08-28T01:51:39.689Z,995.99
2023-08-28T01:57:23.864Z,996.05
2023-08-28T02:03:08.615Z,996.03
2023-08-28T02:08:53.116Z,996.07
2023-08-28T02:14:37.510Z,996.02
2023-08-28T02:20:21.883Z,995.93
2023-08-28T02:26:06.200Z,995.98
2023-08-28T02:31:50.459Z,995.92
2023-08-28T02:37:34.818Z,995.86
2023-08-28T02:43:19.134Z,995.97
2023-08-28T02:49:03.364Z,996.09
2023-08-28T02:54:47.679Z,996.04
2023-08-28T03:00:31.966Z,996.08
2023-08-28T03:06:16.470Z,996.1
2023-08-28T03:12:00.962Z,996.26
2023-08-28T03:17:45.317Z,996.33
2023-08-28T03:23:29.892Z,996.34
2023-08-28T03:29:14.304Z,996.51
2023-08-28T03:34:58.520Z,996.68
2023-08-28T03:40:42.899Z,996.75
2023-08-28T03:46:27.213Z,996.67
2023-08-28T03:52:11.752Z,996.63
2023-08-28T03:57:57.628Z,996.61
2023-08-28T04:03:42.163Z,996.6
2023-08-28T04:09:26.519Z,996.69
2023-08-28T04:15:12.025Z,996.65
2023-08-28T04:20:56.379Z,996.65
2023-08-28T04:26:40.925Z,996.55
2023-08-28T04:32:25.311Z,996.45
2023-08-28T04:38:13.581Z,996.48
2023-08-28T04:43:58.057Z,996.45
2023-08-28T04:49:42.349Z,996.46
2023-08-28T04:55:26.653Z,996.47
2023-08-28T05:01:10.995Z,996.42
2023-08-28T05:06:55.520Z,996.44
2023-08-28T05:12:39.926Z,996.41
2023-08-28T05:18:24.366Z,996.39
2023-08-28T05:24:09.204Z,996.32
2023-08-28T05:29:53.829Z,996.43
2023-08-28T05:35:38.009Z,996.6
2023-08-28T05:41:22.241Z,996.57
2023-08-28T05:47:07.472Z,996.62
2023-08-28T05:52:51.730Z,996.64
2023-08-28T05:58:37.328Z,996.62
2023-08-28T06:04:22.529Z,996.56
2023-08-28T06:10:11.636Z,996.58
2023-08-28T06:15:55.918Z,996.6
2023-08-28T06:21:40.074Z,996.61
2023-08-28T06:27:24.264Z,996.63
2023-08-28T06:33:08.949Z,996.69
2023-08-28T06:38:58.688Z,996.7
2023-08-28T06:44:42.884Z,996.71
2023-08-28T06:50:27.306Z,996.71
2023-08-28T06:56:11.643Z,996.8
2023-08-28T07:01:55.966Z,996.75
2023-08-28T07:07:40.151Z,996.78
2023-08-28T07:13:24.406Z,996.81
2023-08-28T07:19:08.835Z,996.74
2023-08-28T07:24:53.237Z,996.76
2023-08-28T07:30:38.022Z,996.79
2023-08-28T07:36:26.194Z,996.7
2023-08-28T07:42:10.794Z,996.65
2023-08-28T07:47:55.047Z,996.71
2023-08-28T07:53:39.884Z,996.73
2023-08-28T07:59:24.146Z,996.82
2023-08-28T08:05:08.921Z,996.85
2023-08-28T08:10:53.281Z,996.85
2023-08-28T08:16:37.828Z,996.89
2023-08-28T08:22:22.146Z,996.88
2023-08-28T08:28:06.522Z,996.95
2023-08-28T08:33:50.676Z,996.82
2023-08-28T08:39:36.147Z,996.87
2023-08-28T08:45:25.927Z,996.87
2023-08-28T08:51:10.420Z,996.86
2023-08-28T08:56:56.392Z,996.82
2023-08-28T09:02:41.171Z,996.76
2023-08-28T09:08:26.435Z,996.74
2023-08-28T09:14:10.703Z,996.79
2023-08-28T09:19:55.063Z,996.84
2023-08-28T09:25:40.040Z,996.75
2023-08-28T09:31:28.879Z,996.74
2023-08-28T09:37:16.193Z,996.79
2023-08-28T09:43:02.617Z,996.72
2023-08-28T09:48:47.909Z,996.73
2023-08-28T09:54:32.382Z,996.67
2023-08-28T10:00:17.321Z,996.59
2023-08-28T10:06:02.461Z,996.61
2023-08-28T10:11:47.135Z,996.61
2023-08-28T10:17:34.613Z,996.61
2023-08-28T10:23:19.095Z,996.66
2023-08-28T10:29:04.171Z,996.54
2023-08-28T10:34:48.371Z,996.56
2023-08-28T10:40:33.314Z,996.53
2023-08-28T10:46:19.218Z,996.54
2023-08-28T10:52:07.398Z,996.49
2023-08-28T10:57:53.064Z,996.54
2023-08-28T11:03:43.708Z,996.5
2023-08-28T11:09:38.012Z,996.38
2023-08-28T11:15:26.326Z,996.42
2023-08-28T11:21:10.695Z,996.32
2023-08-28T11:26:55.169Z,996.39
2023-08-28T11:32:40.349Z,996.26
2023-08-28T11:38:25.748Z,996.35
2023-08-28T11:44:12.857Z,996.33
2023-08-28T11:49:57.578Z,996.42
2023-08-28T11:55:42.183Z,996.49
2023-08-28T12:01:26.900Z,996.52
2023-08-28T12:07:27.356Z,996.6
2023-08-28T12:13:11.695Z,996.63
2023-08-28T12:18:56.177Z,996.74
2023-08-28T12:24:44.978Z,996.74
2023-08-28T12:30:29.269Z,996.7
2023-08-28T12:36:14.674Z,996.71
2023-08-28T12:41:59.386Z,996.69
2023-08-28T12:47:43.754Z,996.72
2023-08-28T12:53:28.512Z,996.72
2023-08-28T12:59:12.743Z,996.71
2023-08-28T13:04:57.036Z,996.68
2023-08-28T13:10:41.457Z,996.64
2023-08-28T13:16:25.782Z,996.66
2023-08-28T13:22:10.478Z,996.66
2023-08-28T13:27:54.781Z,996.55
2023-08-28T13:33:39.038Z,996.55
2023-08-28T13:39:23.275Z,996.54
2023-08-28T13:45:08.391Z,996.55
2023-08-28T13:50:53.128Z,996.49
2023-08-28T13:56:37.428Z,996.54
2023-08-28T14:02:21.820Z,996.49
2023-08-28T14:08:06.506Z,996.45
2023-08-28T14:13:50.705Z,996.45
2023-08-28T14:19:35.217Z,996.36
2023-08-28T14:25:19.418Z,996.37
2023-08-28T14:31:03.805Z,996.32
2023-08-28T14:36:48.170Z,996.38
2023-08-28T14:42:33.175Z,996.35
2023-08-28T14:48:17.747Z,996.32
2023-08-28T14:54:02.362Z,996.42
2023-08-28T14:59:46.895Z,996.42
2023-08-28T15:05:32.317Z,996.49
2023-08-28T15:11:17.199Z,996.49
2023-08-28T15:17:01.502Z,996.4
2023-08-28T15:22:45.819Z,996.46
2023-08-28T15:28:29.936Z,996.5
2023-08-28T15:34:14.346Z,996.54
2023-08-28T15:39:58.645Z,996.67
2023-08-28T15:45:48.141Z,996.62
2023-08-28T15:51:33.219Z,996.67
2023-08-28T15:57:17.952Z,996.69
2023-08-28T16:03:02.679Z,996.72
2023-08-28T16:08:48.042Z,996.75
2023-08-28T16:14:32.602Z,996.83
2023-08-28T16:20:17.667Z,996.87
2023-08-28T16:26:02.167Z,996.88
2023-08-28T16:31:46.650Z,996.85
2023-08-28T16:37:31.967Z,996.85
2023-08-28T16:43:16.468Z,996.83
2023-08-28T16:49:01.178Z,996.83
2023-08-28T16:54:45.499Z,996.82
2023-08-28T17:00:30.003Z,996.76
2023-08-28T17:06:14.285Z,996.77
2023-08-28T17:11:58.568Z,996.73
2023-08-28T17:17:43.127Z,996.73
2023-08-28T17:23:27.449Z,996.66
2023-08-28T17:29:11.679Z,996.71
2023-08-28T17:34:56.380Z,996.76
2023-08-28T17:40:41.548Z,996.75
2023-08-28T17:46:25.863Z,996.73
2023-08-28T17:52:10.332Z,996.72
2023-08-28T17:57:54.973Z,996.75
2023-08-28T18:03:41.413Z,996.8
2023-08-28T18:09:26.701Z,996.86
2023-08-28T18:15:11.857Z,996.96
2023-08-28T18:20:56.121Z,997
2023-08-28T18:26:40.330Z,997
2023-08-28T18:32:24.690Z,997.08
2023-08-28T18:38:09.198Z,997.19
2023-08-28T18:43:53.526Z,997.19
2023-08-28T18:49:37.992Z,997.24
2023-08-28T18:55:32.766Z,997.28
2023-08-28T19:01:16.955Z,997.31
2023-08-28T19:07:01.455Z,997.4
2023-08-28T19:12:45.848Z,997.44
2023-08-28T19:18:30.101Z,997.55
2023-08-28T19:24:14.342Z,997.68
2023-08-28T19:29:58.720Z,997.73
2023-08-28T19:35:43.297Z,997.75
2023-08-28T19:41:27.542Z,997.81
2023-08-28T19:47:11.957Z,997.83
2023-08-28T19:52:56.424Z,997.82
2023-08-28T19:58:40.698Z,997.92
2023-08-28T20:04:25.264Z,997.88
2023-08-28T20:10:09.776Z,997.95
2023-08-28T20:15:55.949Z,998.01
2023-08-28T20:21:40.752Z,997.91
2023-08-28T20:27:25.095Z,997.91
2023-08-28T20:33:09.651Z,997.95
2023-08-28T20:38:54.193Z,997.88
2023-08-28T20:44:39.306Z,997.83
2023-08-28T20:50:23.854Z,997.85
2023-08-28T20:56:08.184Z,997.85
2023-08-28T21:01:52.377Z,997.75
2023-08-28T21:07:36.810Z,997.75
2023-08-28T21:13:21.190Z,997.68
2023-08-28T21:19:05.501Z,997.68
2023-08-28T21:24:49.747Z,997.6
2023-08-28T21:30:34.123Z,997.61
2023-08-28T21:36:18.336Z,997.61
2023-08-28T21:42:02.682Z,997.58
2023-08-28T21:47:47.215Z,997.54
2023-08-28T21:53:31.706Z,997.51
2023-08-28T21:59:16.116Z,997.5
2023-08-28T22:05:00.311Z,997.52
2023-08-28T22:10:45.671Z,997.5
2023-08-28T22:16:30.102Z,997.45
2023-08-28T22:22:14.389Z,997.4
2023-08-28T22:27:58.712Z,997.38
2023-08-28T22:33:43.011Z,997.43
2023-08-28T22:39:27.487Z,997.38
2023-08-28T22:45:11.974Z,997.38
2023-08-28T22:50:56.160Z,997.38
2023-08-28T22:56:40.715Z,997.42
2023-08-28T23:02:25.067Z,997.34
2023-08-28T23:08:09.665Z,997.35
2023-08-28T23:13:53.910Z,997.35
2023-08-28T23:19:38.149Z,997.41
2023-08-28T23:25:22.437Z,997.37
2023-08-28T23:31:09.689Z,997.27
2023-08-28T23:36:53.985Z,997.29
2023-08-28T23:42:38.189Z,997.21
2023-08-28T23:48:22.611Z,997.15
2023-08-28T23:54:07.272Z,997.12
2023-08-28T23:59:51.547Z,997.04
